sensor_id;sensor_type;location;lat;lon;timestamp;P1;durP1;ratioP1;P2;durP2;ratioP2
41446;SDS011;27185;52.040;4.490;2023-09-12T00:00:08;38.53;;;25.05;;
41446;SDS011;27185;52.040;4.490;2023-09-12T00:02:54;37.17;;;26.73;;
41446;SDS011;27185;52.040;4.490;2023-09-12T00:05:40;37.22;;;25.63;;
41446;SDS011;27185;52.040;4.490;2023-09-12T00:08:26;40.63;;;26.85;;
41446;SDS011;27185;52.040;4.490;2023-09-12T00:11:11;36.28;;;25.83;;
41446;SDS011;27185;52.040;4.490;2023-09-12T00:13:58;38.05;;;26.80;;
41446;SDS011;27185;52.040;4.490;2023-09-12T00:16:46;37.60;;;24.40;;
41446;SDS011;27185;52.040;4.490;2023-09-12T00:19:32;34.38;;;24.50;;
41446;SDS011;27185;52.040;4.490;2023-09-12T00:22:17;40.22;;;26.52;;
41446;SDS011;27185;52.040;4.490;2023-09-12T00:25:03;38.10;;;26.52;;
41446;SDS011;27185;52.040;4.490;2023-09-12T00:27:49;38.47;;;25.52;;
41446;SDS011;27185;52.040;4.490;2023-09-12T00:30:35;42.38;;;28.67;;
41446;SDS011;27185;52.040;4.490;2023-09-12T00:33:20;40.28;;;27.42;;
41446;SDS011;27185;52.040;4.490;2023-09-12T00:36:06;46.28;;;28.55;;
41446;SDS011;27185;52.040;4.490;2023-09-12T00:38:51;42.60;;;27.25;;
41446;SDS011;27185;52.040;4.490;2023-09-12T00:41:37;45.65;;;28.25;;
41446;SDS011;27185;52.040;4.490;2023-09-12T00:44:22;44.17;;;28.50;;
41446;SDS011;27185;52.040;4.490;2023-09-12T00:47:08;41.15;;;27.75;;
41446;SDS011;27185;52.040;4.490;2023-09-12T00:49:55;45.35;;;25.88;;
41446;SDS011;27185;52.040;4.490;2023-09-12T00:52:43;43.42;;;27.60;;
41446;SDS011;27185;52.040;4.490;2023-09-12T00:55:30;43.05;;;27.02;;
41446;SDS011;27185;52.040;4.490;2023-09-12T00:58:17;43.33;;;28.00;;
41446;SDS011;27185;52.040;4.490;2023-09-12T01:01:04;46.90;;;27.70;;
41446;SDS011;27185;52.040;4.490;2023-09-12T01:03:50;45.50;;;28.17;;
41446;SDS011;27185;52.040;4.490;2023-09-12T01:06:37;47.47;;;29.30;;
41446;SDS011;27185;52.040;4.490;2023-09-12T01:09:23;46.80;;;29.23;;
41446;SDS011;27185;52.040;4.490;2023-09-12T01:12:09;45.28;;;28.27;;
41446;SDS011;27185;52.040;4.490;2023-09-12T01:14:59;40.72;;;27.20;;
41446;SDS011;27185;52.040;4.490;2023-09-12T01:17:45;42.03;;;26.30;;
41446;SDS011;27185;52.040;4.490;2023-09-12T01:20:32;39.72;;;24.85;;
41446;SDS011;27185;52.040;4.490;2023-09-12T01:29:51;33.20;;;21.73;;
41446;SDS011;27185;52.040;4.490;2023-09-12T01:32:41;30.63;;;20.30;;
41446;SDS011;27185;52.040;4.490;2023-09-12T01:35:27;31.83;;;20.98;;
41446;SDS011;27185;52.040;4.490;2023-09-12T01:38:13;32.35;;;21.33;;
41446;SDS011;27185;52.040;4.490;2023-09-12T01:40:59;32.03;;;20.48;;
41446;SDS011;27185;52.040;4.490;2023-09-12T01:43:45;33.28;;;20.88;;
41446;SDS011;27185;52.040;4.490;2023-09-12T01:46:33;34.10;;;21.77;;
41446;SDS011;27185;52.040;4.490;2023-09-12T01:49:21;29.27;;;19.80;;
41446;SDS011;27185;52.040;4.490;2023-09-12T01:54:54;25.73;;;16.33;;
41446;SDS011;27185;52.040;4.490;2023-09-12T01:57:41;29.13;;;17.15;;
41446;SDS011;27185;52.040;4.490;2023-09-12T02:00:26;28.45;;;18.65;;
41446;SDS011;27185;52.040;4.490;2023-09-12T02:03:12;31.67;;;19.65;;
41446;SDS011;27185;52.040;4.490;2023-09-12T02:05:58;29.38;;;19.20;;
41446;SDS011;27185;52.040;4.490;2023-09-12T02:08:43;36.95;;;21.17;;
41446;SDS011;27185;52.040;4.490;2023-09-12T02:11:29;28.85;;;19.35;;
41446;SDS011;27185;52.040;4.490;2023-09-12T02:14:14;29.20;;;19.67;;
41446;SDS011;27185;52.040;4.490;2023-09-12T02:17:00;28.60;;;19.13;;
41446;SDS011;27185;52.040;4.490;2023-09-12T02:19:49;29.80;;;18.75;;
41446;SDS011;27185;52.040;4.490;2023-09-12T02:22:35;30.40;;;20.13;;
41446;SDS011;27185;52.040;4.490;2023-09-12T02:25:21;28.77;;;19.85;;
41446;SDS011;27185;52.040;4.490;2023-09-12T02:28:06;29.80;;;18.50;;
41446;SDS011;27185;52.040;4.490;2023-09-12T02:30:52;32.55;;;18.45;;
41446;SDS011;27185;52.040;4.490;2023-09-12T02:33:38;26.00;;;18.05;;
41446;SDS011;27185;52.040;4.490;2023-09-12T02:36:24;26.90;;;17.83;;
41446;SDS011;27185;52.040;4.490;2023-09-12T02:39:09;27.48;;;18.42;;
41446;SDS011;27185;52.040;4.490;2023-09-12T02:41:55;25.45;;;17.15;;
41446;SDS011;27185;52.040;4.490;2023-09-12T02:44:41;30.55;;;18.65;;
41446;SDS011;27185;52.040;4.490;2023-09-12T02:47:26;27.40;;;19.23;;
41446;SDS011;27185;52.040;4.490;2023-09-12T02:50:12;28.38;;;17.85;;
41446;SDS011;27185;52.040;4.490;2023-09-12T02:52:57;26.88;;;17.77;;
41446;SDS011;27185;52.040;4.490;2023-09-12T02:55:43;23.23;;;16.60;;
41446;SDS011;27185;52.040;4.490;2023-09-12T02:58:28;26.70;;;16.50;;
41446;SDS011;27185;52.040;4.490;2023-09-12T03:01:18;26.15;;;17.38;;
41446;SDS011;27185;52.040;4.490;2023-09-12T03:04:04;28.08;;;18.08;;
41446;SDS011;27185;52.040;4.490;2023-09-12T03:06:49;23.05;;;16.02;;
41446;SDS011;27185;52.040;4.490;2023-09-12T03:09:35;29.00;;;17.73;;
41446;SDS011;27185;52.040;4.490;2023-09-12T03:12:23;27.08;;;17.80;;
41446;SDS011;27185;52.040;4.490;2023-09-12T03:15:08;27.05;;;18.10;;
41446;SDS011;27185;52.040;4.490;2023-09-12T03:17:54;27.63;;;17.15;;
41446;SDS011;27185;52.040;4.490;2023-09-12T03:20:40;29.63;;;18.55;;
41446;SDS011;27185;52.040;4.490;2023-09-12T03:23:26;27.00;;;18.40;;
41446;SDS011;27185;52.040;4.490;2023-09-12T03:26:12;28.95;;;17.38;;
41446;SDS011;27185;52.040;4.490;2023-09-12T03:28:57;30.95;;;17.85;;
41446;SDS011;27185;52.040;4.490;2023-09-12T03:31:43;30.23;;;19.13;;
41446;SDS011;27185;52.040;4.490;2023-09-12T03:34:29;30.02;;;19.27;;
41446;SDS011;27185;52.040;4.490;2023-09-12T03:37:14;28.25;;;18.83;;
41446;SDS011;27185;52.040;4.490;2023-09-12T03:40:00;30.90;;;20.10;;
41446;SDS011;27185;52.040;4.490;2023-09-12T03:42:45;29.73;;;19.25;;
41446;SDS011;27185;52.040;4.490;2023-09-12T03:45:31;31.75;;;20.88;;
41446;SDS011;27185;52.040;4.490;2023-09-12T03:48:16;29.10;;;19.80;;
41446;SDS011;27185;52.040;4.490;2023-09-12T03:51:02;34.40;;;21.15;;
41446;SDS011;27185;52.040;4.490;2023-09-12T03:53:49;30.60;;;20.25;;
41446;SDS011;27185;52.040;4.490;2023-09-12T03:56:35;32.28;;;20.50;;
41446;SDS011;27185;52.040;4.490;2023-09-12T03:59:20;35.70;;;21.10;;
41446;SDS011;27185;52.040;4.490;2023-09-12T04:02:06;30.83;;;19.92;;
41446;SDS011;27185;52.040;4.490;2023-09-12T04:04:51;30.52;;;20.13;;
41446;SDS011;27185;52.040;4.490;2023-09-12T04:07:37;34.95;;;21.60;;
41446;SDS011;27185;52.040;4.490;2023-09-12T04:10:23;35.63;;;21.85;;
41446;SDS011;27185;52.040;4.490;2023-09-12T04:13:08;32.30;;;21.35;;
41446;SDS011;27185;52.040;4.490;2023-09-12T04:15:54;33.47;;;22.40;;
41446;SDS011;27185;52.040;4.490;2023-09-12T04:18:39;31.05;;;19.52;;
41446;SDS011;27185;52.040;4.490;2023-09-12T04:21:25;34.35;;;20.38;;
41446;SDS011;27185;52.040;4.490;2023-09-12T04:24:10;34.42;;;21.02;;
41446;SDS011;27185;52.040;4.490;2023-09-12T04:26:56;33.25;;;21.00;;
41446;SDS011;27185;52.040;4.490;2023-09-12T04:29:41;35.47;;;21.48;;
41446;SDS011;27185;52.040;4.490;2023-09-12T04:32:27;35.05;;;21.05;;
41446;SDS011;27185;52.040;4.490;2023-09-12T04:35:13;34.95;;;20.63;;
41446;SDS011;27185;52.040;4.490;2023-09-12T04:37:59;31.23;;;19.85;;
41446;SDS011;27185;52.040;4.490;2023-09-12T04:40:52;37.30;;;21.98;;
41446;SDS011;27185;52.040;4.490;2023-09-12T04:43:42;34.75;;;21.17;;
41446;SDS011;27185;52.040;4.490;2023-09-12T04:46:29;31.83;;;19.80;;
41446;SDS011;27185;52.040;4.490;2023-09-12T04:49:15;34.78;;;20.23;;
41446;SDS011;27185;52.040;4.490;2023-09-12T04:52:00;37.78;;;21.45;;
41446;SDS011;27185;52.040;4.490;2023-09-12T04:54:46;36.47;;;21.65;;
41446;SDS011;27185;52.040;4.490;2023-09-12T04:57:31;31.83;;;19.67;;
41446;SDS011;27185;52.040;4.490;2023-09-12T05:00:18;33.08;;;20.70;;
41446;SDS011;27185;52.040;4.490;2023-09-12T05:03:04;36.85;;;22.20;;
41446;SDS011;27185;52.040;4.490;2023-09-12T05:05:50;37.65;;;22.30;;
41446;SDS011;27185;52.040;4.490;2023-09-12T05:08:35;39.33;;;22.20;;
41446;SDS011;27185;52.040;4.490;2023-09-12T05:11:22;39.00;;;23.00;;
41446;SDS011;27185;52.040;4.490;2023-09-12T05:14:09;43.28;;;24.17;;
41446;SDS011;27185;52.040;4.490;2023-09-12T05:16:54;38.70;;;22.65;;
41446;SDS011;27185;52.040;4.490;2023-09-12T05:19:41;43.70;;;25.30;;
41446;SDS011;27185;52.040;4.490;2023-09-12T05:22:27;44.83;;;25.83;;
41446;SDS011;27185;52.040;4.490;2023-09-12T05:25:13;43.80;;;24.27;;
41446;SDS011;27185;52.040;4.490;2023-09-12T05:27:59;45.17;;;26.75;;
41446;SDS011;27185;52.040;4.490;2023-09-12T05:30:45;40.15;;;24.85;;
41446;SDS011;27185;52.040;4.490;2023-09-12T05:33:30;35.95;;;22.38;;
41446;SDS011;27185;52.040;4.490;2023-09-12T05:36:16;45.13;;;24.08;;
41446;SDS011;27185;52.040;4.490;2023-09-12T05:39:02;39.42;;;23.27;;
41446;SDS011;27185;52.040;4.490;2023-09-12T05:41:49;43.35;;;25.05;;
41446;SDS011;27185;52.040;4.490;2023-09-12T05:44:34;47.45;;;26.85;;
41446;SDS011;27185;52.040;4.490;2023-09-12T05:47:20;48.20;;;26.23;;
41446;SDS011;27185;52.040;4.490;2023-09-12T05:50:06;46.40;;;25.52;;
41446;SDS011;27185;52.040;4.490;2023-09-12T05:52:52;38.05;;;23.90;;
41446;SDS011;27185;52.040;4.490;2023-09-12T05:55:38;46.88;;;27.10;;
41446;SDS011;27185;52.040;4.490;2023-09-12T05:58:23;46.05;;;26.08;;
41446;SDS011;27185;52.040;4.490;2023-09-12T06:01:09;42.83;;;24.30;;
41446;SDS011;27185;52.040;4.490;2023-09-12T06:03:54;46.83;;;25.02;;
41446;SDS011;27185;52.040;4.490;2023-09-12T06:06:41;46.80;;;28.15;;
41446;SDS011;27185;52.040;4.490;2023-09-12T06:09:27;45.15;;;25.60;;
41446;SDS011;27185;52.040;4.490;2023-09-12T06:12:12;44.47;;;25.38;;
41446;SDS011;27185;52.040;4.490;2023-09-12T06:14:58;49.28;;;27.77;;
41446;SDS011;27185;52.040;4.490;2023-09-12T06:17:44;49.05;;;27.20;;
41446;SDS011;27185;52.040;4.490;2023-09-12T06:20:30;57.83;;;30.35;;
41446;SDS011;27185;52.040;4.490;2023-09-12T06:23:16;50.72;;;30.23;;
41446;SDS011;27185;52.040;4.490;2023-09-12T06:26:02;51.88;;;29.40;;
41446;SDS011;27185;52.040;4.490;2023-09-12T06:28:48;53.90;;;29.00;;
41446;SDS011;27185;52.040;4.490;2023-09-12T06:31:33;52.22;;;28.30;;
41446;SDS011;27185;52.040;4.490;2023-09-12T06:34:20;50.17;;;29.23;;
41446;SDS011;27185;52.040;4.490;2023-09-12T06:37:06;50.60;;;28.77;;
41446;SDS011;27185;52.040;4.490;2023-09-12T06:39:51;54.75;;;29.92;;
41446;SDS011;27185;52.040;4.490;2023-09-12T06:42:37;57.65;;;32.33;;
41446;SDS011;27185;52.040;4.490;2023-09-12T06:45:23;53.30;;;30.40;;
41446;SDS011;27185;52.040;4.490;2023-09-12T06:48:08;61.20;;;32.03;;
41446;SDS011;27185;52.040;4.490;2023-09-12T06:50:54;55.78;;;29.73;;
41446;SDS011;27185;52.040;4.490;2023-09-12T06:53:39;52.75;;;31.17;;
41446;SDS011;27185;52.040;4.490;2023-09-12T06:56:25;59.90;;;30.13;;
41446;SDS011;27185;52.040;4.490;2023-09-12T06:59:12;55.83;;;30.98;;
41446;SDS011;27185;52.040;4.490;2023-09-12T07:01:57;51.42;;;30.48;;
41446;SDS011;27185;52.040;4.490;2023-09-12T07:04:43;62.10;;;33.80;;
41446;SDS011;27185;52.040;4.490;2023-09-12T07:07:29;53.92;;;31.30;;
41446;SDS011;27185;52.040;4.490;2023-09-12T07:10:14;55.60;;;31.33;;
41446;SDS011;27185;52.040;4.490;2023-09-12T07:13:00;51.92;;;31.55;;
41446;SDS011;27185;52.040;4.490;2023-09-12T07:15:45;52.25;;;30.63;;
41446;SDS011;27185;52.040;4.490;2023-09-12T07:18:31;59.25;;;34.10;;
41446;SDS011;27185;52.040;4.490;2023-09-12T07:21:20;53.70;;;31.52;;
41446;SDS011;27185;52.040;4.490;2023-09-12T07:24:06;47.67;;;30.00;;
41446;SDS011;27185;52.040;4.490;2023-09-12T07:26:52;51.92;;;32.92;;
41446;SDS011;27185;52.040;4.490;2023-09-12T07:29:37;46.60;;;30.35;;
41446;SDS011;27185;52.040;4.490;2023-09-12T07:32:23;53.25;;;31.08;;
41446;SDS011;27185;52.040;4.490;2023-09-12T07:35:09;50.80;;;28.13;;
41446;SDS011;27185;52.040;4.490;2023-09-12T07:37:55;50.80;;;31.70;;
41446;SDS011;27185;52.040;4.490;2023-09-12T07:40:41;48.72;;;29.70;;
41446;SDS011;27185;52.040;4.490;2023-09-12T07:43:27;43.65;;;29.13;;
41446;SDS011;27185;52.040;4.490;2023-09-12T07:46:12;41.55;;;29.90;;
41446;SDS011;27185;52.040;4.490;2023-09-12T07:48:58;47.63;;;28.30;;
41446;SDS011;27185;52.040;4.490;2023-09-12T07:51:44;45.63;;;28.48;;
41446;SDS011;27185;52.040;4.490;2023-09-12T07:54:29;45.20;;;28.33;;
41446;SDS011;27185;52.040;4.490;2023-09-12T07:57:15;41.60;;;27.38;;
41446;SDS011;27185;52.040;4.490;2023-09-12T08:00:01;43.88;;;27.60;;
41446;SDS011;27185;52.040;4.490;2023-09-12T08:02:49;40.97;;;28.27;;
41446;SDS011;27185;52.040;4.490;2023-09-12T08:05:35;38.83;;;26.90;;
41446;SDS011;27185;52.040;4.490;2023-09-12T08:08:21;47.40;;;31.05;;
41446;SDS011;27185;52.040;4.490;2023-09-12T08:11:07;37.90;;;27.50;;
41446;SDS011;27185;52.040;4.490;2023-09-12T08:13:52;38.92;;;27.88;;
41446;SDS011;27185;52.040;4.490;2023-09-12T08:16:38;39.08;;;27.30;;
41446;SDS011;27185;52.040;4.490;2023-09-12T08:19:23;37.42;;;25.90;;
41446;SDS011;27185;52.040;4.490;2023-09-12T08:22:09;36.65;;;27.23;;
41446;SDS011;27185;52.040;4.490;2023-09-12T08:24:56;39.42;;;26.73;;
41446;SDS011;27185;52.040;4.490;2023-09-12T08:27:41;37.63;;;27.00;;
41446;SDS011;27185;52.040;4.490;2023-09-12T08:30:30;35.30;;;24.05;;
41446;SDS011;27185;52.040;4.490;2023-09-12T08:33:19;37.40;;;27.13;;
41446;SDS011;27185;52.040;4.490;2023-09-12T08:36:04;36.33;;;25.67;;
41446;SDS011;27185;52.040;4.490;2023-09-12T08:38:50;39.13;;;29.45;;
41446;SDS011;27185;52.040;4.490;2023-09-12T08:41:35;41.95;;;27.77;;
41446;SDS011;27185;52.040;4.490;2023-09-12T08:44:21;41.95;;;27.73;;
41446;SDS011;27185;52.040;4.490;2023-09-12T08:47:08;33.05;;;24.92;;
41446;SDS011;27185;52.040;4.490;2023-09-12T08:49:55;33.72;;;25.40;;
41446;SDS011;27185;52.040;4.490;2023-09-12T08:52:42;35.63;;;25.95;;
41446;SDS011;27185;52.040;4.490;2023-09-12T08:55:29;30.08;;;24.83;;
41446;SDS011;27185;52.040;4.490;2023-09-12T08:58:17;28.25;;;22.15;;
41446;SDS011;27185;52.040;4.490;2023-09-12T09:01:02;32.20;;;23.95;;
41446;SDS011;27185;52.040;4.490;2023-09-12T09:03:49;30.15;;;23.90;;
41446;SDS011;27185;52.040;4.490;2023-09-12T09:06:35;28.70;;;21.67;;
41446;SDS011;27185;52.040;4.490;2023-09-12T09:09:22;35.17;;;25.40;;
41446;SDS011;27185;52.040;4.490;2023-09-12T09:12:09;32.83;;;25.70;;
41446;SDS011;27185;52.040;4.490;2023-09-12T09:14:55;33.00;;;24.77;;
41446;SDS011;27185;52.040;4.490;2023-09-12T09:17:42;29.20;;;24.57;;
41446;SDS011;27185;52.040;4.490;2023-09-12T09:20:31;34.28;;;27.15;;
41446;SDS011;27185;52.040;4.490;2023-09-12T09:23:22;29.42;;;26.20;;
41446;SDS011;27185;52.040;4.490;2023-09-12T09:26:08;33.10;;;27.77;;
41446;SDS011;27185;52.040;4.490;2023-09-12T09:29:05;28.27;;;25.13;;
41446;SDS011;27185;52.040;4.490;2023-09-12T09:34:38;29.35;;;22.85;;
41446;SDS011;27185;52.040;4.490;2023-09-12T09:37:24;28.05;;;20.55;;
41446;SDS011;27185;52.040;4.490;2023-09-12T09:40:11;25.77;;;20.70;;
41446;SDS011;27185;52.040;4.490;2023-09-12T09:42:58;24.33;;;21.08;;
41446;SDS011;27185;52.040;4.490;2023-09-12T09:45:45;24.02;;;19.38;;
41446;SDS011;27185;52.040;4.490;2023-09-12T09:48:31;22.08;;;19.20;;
41446;SDS011;27185;52.040;4.490;2023-09-12T09:51:17;22.70;;;19.42;;
41446;SDS011;27185;52.040;4.490;2023-09-12T09:54:13;26.70;;;22.13;;
41446;SDS011;27185;52.040;4.490;2023-09-12T09:56:58;24.85;;;20.35;;
41446;SDS011;27185;52.040;4.490;2023-09-12T09:59:48;17.25;;;13.43;;
41446;SDS011;27185;52.040;4.490;2023-09-12T10:02:36;13.55;;;11.85;;
41446;SDS011;27185;52.040;4.490;2023-09-12T10:05:24;18.27;;;14.13;;
41446;SDS011;27185;52.040;4.490;2023-09-12T10:08:10;14.60;;;12.90;;
41446;SDS011;27185;52.040;4.490;2023-09-12T10:10:56;16.40;;;13.80;;
41446;SDS011;27185;52.040;4.490;2023-09-12T10:13:46;18.30;;;13.40;;
41446;SDS011;27185;52.040;4.490;2023-09-12T10:16:44;17.33;;;14.05;;
41446;SDS011;27185;52.040;4.490;2023-09-12T10:22:24;18.23;;;13.23;;
41446;SDS011;27185;52.040;4.490;2023-09-12T10:25:16;18.02;;;12.60;;
41446;SDS011;27185;52.040;4.490;2023-09-12T10:28:03;12.70;;;10.80;;
41446;SDS011;27185;52.040;4.490;2023-09-12T10:30:50;12.07;;;10.15;;
41446;SDS011;27185;52.040;4.490;2023-09-12T10:33:43;17.70;;;11.90;;
41446;SDS011;27185;52.040;4.490;2023-09-12T10:36:36;12.35;;;10.32;;
41446;SDS011;27185;52.040;4.490;2023-09-12T10:39:24;14.68;;;9.88;;
41446;SDS011;27185;52.040;4.490;2023-09-12T10:42:13;15.75;;;10.73;;
41446;SDS011;27185;52.040;4.490;2023-09-12T10:45:02;11.13;;;9.57;;
41446;SDS011;27185;52.040;4.490;2023-09-12T10:47:50;10.70;;;9.02;;
41446;SDS011;27185;52.040;4.490;2023-09-12T10:50:37;13.90;;;9.70;;
41446;SDS011;27185;52.040;4.490;2023-09-12T10:53:24;12.65;;;8.80;;
41446;SDS011;27185;52.040;4.490;2023-09-12T10:56:14;15.90;;;10.73;;
41446;SDS011;27185;52.040;4.490;2023-09-12T11:01:51;30.00;;;23.25;;
41446;SDS011;27185;52.040;4.490;2023-09-12T11:04:36;29.92;;;23.73;;
41446;SDS011;27185;52.040;4.490;2023-09-12T11:10:18;32.58;;;25.23;;
41446;SDS011;27185;52.040;4.490;2023-09-12T11:13:05;32.27;;;26.20;;
41446;SDS011;27185;52.040;4.490;2023-09-12T11:16:09;33.75;;;27.92;;
41446;SDS011;27185;52.040;4.490;2023-09-12T11:19:12;37.58;;;26.58;;
41446;SDS011;27185;52.040;4.490;2023-09-12T11:21:59;31.45;;;25.27;;
41446;SDS011;27185;52.040;4.490;2023-09-12T11:24:44;36.70;;;27.25;;
41446;SDS011;27185;52.040;4.490;2023-09-12T11:27:32;32.22;;;22.92;;
41446;SDS011;27185;52.040;4.490;2023-09-12T11:30:30;30.60;;;23.75;;
41446;SDS011;27185;52.040;4.490;2023-09-12T11:33:16;32.25;;;24.15;;
41446;SDS011;27185;52.040;4.490;2023-09-12T11:36:01;32.65;;;23.15;;
41446;SDS011;27185;52.040;4.490;2023-09-12T11:38:49;32.65;;;22.40;;
41446;SDS011;27185;52.040;4.490;2023-09-12T11:41:40;29.90;;;23.50;;
41446;SDS011;27185;52.040;4.490;2023-09-12T11:44:26;33.22;;;25.17;;
41446;SDS011;27185;52.040;4.490;2023-09-12T11:47:13;29.73;;;24.73;;
41446;SDS011;27185;52.040;4.490;2023-09-12T11:49:59;34.17;;;25.40;;
41446;SDS011;27185;52.040;4.490;2023-09-12T11:52:45;32.65;;;25.48;;
41446;SDS011;27185;52.040;4.490;2023-09-12T11:55:34;32.22;;;25.27;;
41446;SDS011;27185;52.040;4.490;2023-09-12T11:58:22;27.63;;;22.38;;
41446;SDS011;27185;52.040;4.490;2023-09-12T12:01:09;30.00;;;20.50;;
41446;SDS011;27185;52.040;4.490;2023-09-12T12:03:58;24.25;;;19.25;;
41446;SDS011;27185;52.040;4.490;2023-09-12T12:06:43;27.75;;;21.27;;
41446;SDS011;27185;52.040;4.490;2023-09-12T12:09:29;25.38;;;21.52;;
41446;SDS011;27185;52.040;4.490;2023-09-12T12:12:16;28.30;;;21.88;;
41446;SDS011;27185;52.040;4.490;2023-09-12T12:15:01;25.27;;;21.25;;
41446;SDS011;27185;52.040;4.490;2023-09-12T12:17:47;32.35;;;21.38;;
41446;SDS011;27185;52.040;4.490;2023-09-12T12:20:33;25.85;;;21.60;;
41446;SDS011;27185;52.040;4.490;2023-09-12T12:23:19;28.70;;;22.58;;
41446;SDS011;27185;52.040;4.490;2023-09-12T12:26:08;28.33;;;20.88;;
41446;SDS011;27185;52.040;4.490;2023-09-12T12:28:54;23.63;;;19.98;;
41446;SDS011;27185;52.040;4.490;2023-09-12T12:31:40;26.38;;;19.55;;
41446;SDS011;27185;52.040;4.490;2023-09-12T12:34:26;21.50;;;19.00;;
41446;SDS011;27185;52.040;4.490;2023-09-12T12:37:11;19.27;;;16.60;;
41446;SDS011;27185;52.040;4.490;2023-09-12T12:39:57;15.68;;;13.48;;
41446;SDS011;27185;52.040;4.490;2023-09-12T12:42:44;14.67;;;10.87;;
41446;SDS011;27185;52.040;4.490;2023-09-12T12:45:33;13.40;;;12.00;;
41446;SDS011;27185;52.040;4.490;2023-09-12T12:48:29;17.17;;;13.18;;
41446;SDS011;27185;52.040;4.490;2023-09-12T12:51:23;15.30;;;13.70;;
41446;SDS011;27185;52.040;4.490;2023-09-12T12:54:09;17.35;;;14.23;;
41446;SDS011;27185;52.040;4.490;2023-09-12T12:56:55;12.90;;;11.52;;
41446;SDS011;27185;52.040;4.490;2023-09-12T12:59:44;13.07;;;11.03;;
41446;SDS011;27185;52.040;4.490;2023-09-12T13:02:31;10.25;;;7.97;;
41446;SDS011;27185;52.040;4.490;2023-09-12T13:05:29;10.75;;;7.18;;
41446;SDS011;27185;52.040;4.490;2023-09-12T13:08:17;10.48;;;9.38;;
41446;SDS011;27185;52.040;4.490;2023-09-12T13:11:03;12.05;;;10.68;;
41446;SDS011;27185;52.040;4.490;2023-09-12T13:13:51;10.98;;;9.88;;
41446;SDS011;27185;52.040;4.490;2023-09-12T13:16:37;11.35;;;8.20;;
41446;SDS011;27185;52.040;4.490;2023-09-12T13:19:26;7.38;;;6.57;;
41446;SDS011;27185;52.040;4.490;2023-09-12T13:22:12;9.50;;;6.35;;
41446;SDS011;27185;52.040;4.490;2023-09-12T13:24:57;10.27;;;5.85;;
41446;SDS011;27185;52.040;4.490;2023-09-12T13:27:43;13.45;;;7.68;;
41446;SDS011;27185;52.040;4.490;2023-09-12T13:30:28;12.40;;;7.40;;
41446;SDS011;27185;52.040;4.490;2023-09-12T13:33:14;13.27;;;7.00;;
41446;SDS011;27185;52.040;4.490;2023-09-12T13:36:00;11.05;;;7.18;;
41446;SDS011;27185;52.040;4.490;2023-09-12T13:38:46;9.25;;;5.78;;
41446;SDS011;27185;52.040;4.490;2023-09-12T13:41:33;7.20;;;5.95;;
41446;SDS011;27185;52.040;4.490;2023-09-12T13:44:19;7.07;;;5.45;;
41446;SDS011;27185;52.040;4.490;2023-09-12T13:47:04;7.60;;;5.32;;
41446;SDS011;27185;52.040;4.490;2023-09-12T13:49:50;13.90;;;7.05;;
41446;SDS011;27185;52.040;4.490;2023-09-12T13:52:38;6.43;;;5.07;;
41446;SDS011;27185;52.040;4.490;2023-09-12T13:55:25;8.48;;;5.40;;
41446;SDS011;27185;52.040;4.490;2023-09-12T13:58:11;9.13;;;6.18;;
41446;SDS011;27185;52.040;4.490;2023-09-12T14:00:57;11.00;;;6.18;;
41446;SDS011;27185;52.040;4.490;2023-09-12T14:03:45;11.75;;;6.97;;
41446;SDS011;27185;52.040;4.490;2023-09-12T14:06:33;16.27;;;7.78;;
41446;SDS011;27185;52.040;4.490;2023-09-12T14:09:22;11.63;;;6.68;;
41446;SDS011;27185;52.040;4.490;2023-09-12T14:12:08;11.18;;;6.28;;
41446;SDS011;27185;52.040;4.490;2023-09-12T14:15:02;13.85;;;7.90;;
41446;SDS011;27185;52.040;4.490;2023-09-12T14:17:48;13.68;;;8.55;;
41446;SDS011;27185;52.040;4.490;2023-09-12T14:20:34;12.77;;;7.88;;
41446;SDS011;27185;52.040;4.490;2023-09-12T14:23:38;12.70;;;7.63;;
41446;SDS011;27185;52.040;4.490;2023-09-12T14:26:24;10.63;;;6.68;;
41446;SDS011;27185;52.040;4.490;2023-09-12T14:29:12;9.77;;;7.07;;
41446;SDS011;27185;52.040;4.490;2023-09-12T14:32:06;10.63;;;8.23;;
41446;SDS011;27185;52.040;4.490;2023-09-12T14:34:52;11.55;;;8.40;;
41446;SDS011;27185;52.040;4.490;2023-09-12T14:37:42;12.15;;;9.85;;
41446;SDS011;27185;52.040;4.490;2023-09-12T14:40:36;12.20;;;8.32;;
41446;SDS011;27185;52.040;4.490;2023-09-12T14:43:25;10.43;;;8.60;;
41446;SDS011;27185;52.040;4.490;2023-09-12T14:46:14;10.63;;;7.95;;
41446;SDS011;27185;52.040;4.490;2023-09-12T14:49:06;12.80;;;8.38;;
41446;SDS011;27185;52.040;4.490;2023-09-12T14:51:57;12.35;;;9.43;;
41446;SDS011;27185;52.040;4.490;2023-09-12T14:54:47;12.30;;;9.30;;
41446;SDS011;27185;52.040;4.490;2023-09-12T14:57:33;12.65;;;9.88;;
41446;SDS011;27185;52.040;4.490;2023-09-12T15:00:22;13.25;;;9.90;;
41446;SDS011;27185;52.040;4.490;2023-09-12T15:03:15;14.77;;;11.10;;
41446;SDS011;27185;52.040;4.490;2023-09-12T15:06:04;15.77;;;10.32;;
41446;SDS011;27185;52.040;4.490;2023-09-12T15:08:55;13.35;;;10.25;;
41446;SDS011;27185;52.040;4.490;2023-09-12T15:11:41;13.10;;;10.65;;
41446;SDS011;27185;52.040;4.490;2023-09-12T15:14:36;17.83;;;11.80;;
41446;SDS011;27185;52.040;4.490;2023-09-12T15:17:38;14.77;;;11.20;;
41446;SDS011;27185;52.040;4.490;2023-09-12T15:20:29;16.75;;;11.13;;
41446;SDS011;27185;52.040;4.490;2023-09-12T15:23:23;13.65;;;9.80;;
41446;SDS011;27185;52.040;4.490;2023-09-12T15:26:18;16.15;;;10.65;;
41446;SDS011;27185;52.040;4.490;2023-09-12T15:29:03;15.48;;;11.77;;
41446;SDS011;27185;52.040;4.490;2023-09-12T15:31:55;15.65;;;10.95;;
41446;SDS011;27185;52.040;4.490;2023-09-12T15:34:46;16.13;;;11.05;;
41446;SDS011;27185;52.040;4.490;2023-09-12T15:37:48;15.75;;;10.77;;
41446;SDS011;27185;52.040;4.490;2023-09-12T15:40:39;14.75;;;9.23;;
41446;SDS011;27185;52.040;4.490;2023-09-12T15:43:25;13.27;;;11.00;;
41446;SDS011;27185;52.040;4.490;2023-09-12T15:46:14;15.13;;;10.05;;
41446;SDS011;27185;52.040;4.490;2023-09-12T15:49:01;13.95;;;9.70;;
41446;SDS011;27185;52.040;4.490;2023-09-12T15:51:52;16.45;;;10.57;;
41446;SDS011;27185;52.040;4.490;2023-09-12T15:54:37;14.32;;;9.75;;
41446;SDS011;27185;52.040;4.490;2023-09-12T15:57:28;15.50;;;9.35;;
41446;SDS011;27185;52.040;4.490;2023-09-12T16:00:14;13.50;;;7.65;;
41446;SDS011;27185;52.040;4.490;2023-09-12T16:03:00;10.00;;;8.27;;
41446;SDS011;27185;52.040;4.490;2023-09-12T16:05:46;14.38;;;8.30;;
41446;SDS011;27185;52.040;4.490;2023-09-12T16:08:32;10.52;;;8.55;;
41446;SDS011;27185;52.040;4.490;2023-09-12T16:11:18;11.82;;;8.40;;
41446;SDS011;27185;52.040;4.490;2023-09-12T16:14:08;8.70;;;6.82;;
41446;SDS011;27185;52.040;4.490;2023-09-12T16:16:54;9.52;;;6.25;;
41446;SDS011;27185;52.040;4.490;2023-09-12T16:19:40;9.32;;;6.10;;
41446;SDS011;27185;52.040;4.490;2023-09-12T16:22:26;9.55;;;6.43;;
41446;SDS011;27185;52.040;4.490;2023-09-12T16:25:11;8.82;;;6.35;;
41446;SDS011;27185;52.040;4.490;2023-09-12T16:27:57;7.85;;;6.45;;
41446;SDS011;27185;52.040;4.490;2023-09-12T16:30:45;11.60;;;6.45;;
41446;SDS011;27185;52.040;4.490;2023-09-12T16:33:31;10.48;;;6.07;;
41446;SDS011;27185;52.040;4.490;2023-09-12T16:36:18;7.55;;;6.20;;
41446;SDS011;27185;52.040;4.490;2023-09-12T16:39:03;8.50;;;6.00;;
41446;SDS011;27185;52.040;4.490;2023-09-12T16:41:49;8.30;;;5.72;;